Aviation Digital Data Service (ADDS)

Output produced by METARs form (1908 UTC 24 April 2014)
found at http://aviationweather.gov/adds/metars/
 
KFDY 241734Z 2418/2518 10012G18KT P6SM SCT100 BKN250 
     FM250600 10009KT P6SM BKN080 
     FM250800 10007KT P6SM BKN045 OVC080 
     TEMPO 2508/2510 5SM -RA BR OVC045 
     FM251000 09006KT 5SM -RA SCT008 OVC025 
     FM251300 30008KT 3SM -RA BR OVC008